sensor_id;sensor_type;location;lat;lon;timestamp;temperature;humidity
18930;DHT22;43305;52.186;5.598;2023-02-28T00:00:00;1.50;99.90
18930;DHT22;43305;52.186;5.598;2023-02-28T00:02:33;1.50;99.90
18930;DHT22;43305;52.186;5.598;2023-02-28T00:05:00;1.50;99.90
18930;DHT22;43305;52.186;5.598;2023-02-28T00:07:29;1.50;99.90
18930;DHT22;43305;52.186;5.598;2023-02-28T00:09:57;1.60;99.90
18930;DHT22;43305;52.186;5.598;2023-02-28T00:12:24;1.60;99.90
18930;DHT22;43305;52.186;5.598;2023-02-28T00:14:51;1.60;99.90
18930;DHT22;43305;52.186;5.598;2023-02-28T00:17:19;1.60;99.90
18930;DHT22;43305;52.186;5.598;2023-02-28T00:19:47;1.60;99.90
18930;DHT22;43305;52.186;5.598;2023-02-28T00:22:14;1.60;99.90
18930;DHT22;43305;52.186;5.598;2023-02-28T00:24:41;1.60;99.90
18930;DHT22;43305;52.186;5.598;2023-02-28T00:27:10;1.70;99.90
18930;DHT22;43305;52.186;5.598;2023-02-28T00:29:38;1.70;99.90
18930;DHT22;43305;52.186;5.598;2023-02-28T00:32:05;1.70;99.90
18930;DHT22;43305;52.186;5.598;2023-02-28T00:34:32;1.70;99.90
18930;DHT22;43305;52.186;5.598;2023-02-28T00:37:04;1.70;99.90
18930;DHT22;43305;52.186;5.598;2023-02-28T00:39:32;1.80;99.90
18930;DHT22;43305;52.186;5.598;2023-02-28T00:41:59;1.80;99.90
18930;DHT22;43305;52.186;5.598;2023-02-28T00:44:28;1.80;99.90
18930;DHT22;43305;52.186;5.598;2023-02-28T00:46:54;1.80;99.90
18930;DHT22;43305;52.186;5.598;2023-02-28T00:49:22;1.80;99.90
18930;DHT22;43305;52.186;5.598;2023-02-28T00:51:49;1.80;99.90
18930;DHT22;43305;52.186;5.598;2023-02-28T00:54:16;1.90;99.90
18930;DHT22;43305;52.186;5.598;2023-02-28T00:56:43;1.90;99.90
18930;DHT22;43305;52.186;5.598;2023-02-28T00:59:11;1.90;99.90
18930;DHT22;43305;52.186;5.598;2023-02-28T01:01:40;1.90;99.90
18930;DHT22;43305;52.186;5.598;2023-02-28T01:04:08;1.90;99.90
18930;DHT22;43305;52.186;5.598;2023-02-28T01:06:35;1.90;99.90
18930;DHT22;43305;52.186;5.598;2023-02-28T01:09:03;1.90;99.90
18930;DHT22;43305;52.186;5.598;2023-02-28T01:11:30;1.90;99.90
18930;DHT22;43305;52.186;5.598;2023-02-28T01:13:57;2.00;99.90
18930;DHT22;43305;52.186;5.598;2023-02-28T01:16:25;2.00;99.90
18930;DHT22;43305;52.186;5.598;2023-02-28T01:18:53;2.00;99.90
18930;DHT22;43305;52.186;5.598;2023-02-28T01:21:21;2.00;99.90
18930;DHT22;43305;52.186;5.598;2023-02-28T01:23:49;2.00;99.90
18930;DHT22;43305;52.186;5.598;2023-02-28T01:26:18;2.00;99.90
18930;DHT22;43305;52.186;5.598;2023-02-28T01:28:47;2.00;99.90
18930;DHT22;43305;52.186;5.598;2023-02-28T01:31:15;2.10;99.90
18930;DHT22;43305;52.186;5.598;2023-02-28T01:33:42;2.00;99.90
18930;DHT22;43305;52.186;5.598;2023-02-28T01:36:12;2.10;99.90
18930;DHT22;43305;52.186;5.598;2023-02-28T01:38:39;2.10;99.90
18930;DHT22;43305;52.186;5.598;2023-02-28T01:41:07;2.10;99.90
18930;DHT22;43305;52.186;5.598;2023-02-28T01:43:53;2.10;99.90
18930;DHT22;43305;52.186;5.598;2023-02-28T01:46:21;2.10;99.90
18930;DHT22;43305;52.186;5.598;2023-02-28T01:48:52;2.10;99.90
18930;DHT22;43305;52.186;5.598;2023-02-28T01:51:27;2.10;99.90
18930;DHT22;43305;52.186;5.598;2023-02-28T01:53:58;2.10;99.90
18930;DHT22;43305;52.186;5.598;2023-02-28T01:56:29;2.20;99.90
18930;DHT22;43305;52.186;5.598;2023-02-28T01:58:57;2.20;99.90
18930;DHT22;43305;52.186;5.598;2023-02-28T02:01:26;2.10;99.90
18930;DHT22;43305;52.186;5.598;2023-02-28T02:03:55;2.10;99.90
18930;DHT22;43305;52.186;5.598;2023-02-28T02:06:25;2.20;99.90
18930;DHT22;43305;52.186;5.598;2023-02-28T02:08:53;2.20;99.90
18930;DHT22;43305;52.186;5.598;2023-02-28T02:11:22;2.10;99.90
18930;DHT22;43305;52.186;5.598;2023-02-28T02:16:54;2.20;99.90
18930;DHT22;43305;52.186;5.598;2023-02-28T02:19:46;2.20;99.90
18930;DHT22;43305;52.186;5.598;2023-02-28T02:22:43;2.20;99.90
18930;DHT22;43305;52.186;5.598;2023-02-28T02:25:22;2.20;99.90
18930;DHT22;43305;52.186;5.598;2023-02-28T02:31:26;2.20;99.90
18930;DHT22;43305;52.186;5.598;2023-02-28T02:34:33;2.20;99.90
18930;DHT22;43305;52.186;5.598;2023-02-28T02:37:22;2.20;99.90
18930;DHT22;43305;52.186;5.598;2023-02-28T02:40:00;2.20;99.90
18930;DHT22;43305;52.186;5.598;2023-02-28T02:42:34;2.20;99.90
18930;DHT22;43305;52.186;5.598;2023-02-28T02:45:07;2.20;99.90
18930;DHT22;43305;52.186;5.598;2023-02-28T02:47:37;2.20;99.90
18930;DHT22;43305;52.186;5.598;2023-02-28T02:50:12;2.20;99.90
18930;DHT22;43305;52.186;5.598;2023-02-28T02:52:43;2.20;99.90
18930;DHT22;43305;52.186;5.598;2023-02-28T02:55:13;2.20;99.90
18930;DHT22;43305;52.186;5.598;2023-02-28T02:57:46;2.30;99.90
18930;DHT22;43305;52.186;5.598;2023-02-28T03:00:16;2.30;99.90
18930;DHT22;43305;52.186;5.598;2023-02-28T03:02:45;2.20;99.90
18930;DHT22;43305;52.186;5.598;2023-02-28T03:05:19;2.20;99.90
18930;DHT22;43305;52.186;5.598;2023-02-28T03:07:46;2.20;99.90
18930;DHT22;43305;52.186;5.598;2023-02-28T03:10:34;2.20;99.90
18930;DHT22;43305;52.186;5.598;2023-02-28T03:13:30;2.30;99.90
18930;DHT22;43305;52.186;5.598;2023-02-28T03:16:22;2.30;99.90
18930;DHT22;43305;52.186;5.598;2023-02-28T03:18:57;2.30;99.90
18930;DHT22;43305;52.186;5.598;2023-02-28T03:21:30;2.30;99.90
18930;DHT22;43305;52.186;5.598;2023-02-28T03:24:03;2.30;99.90
18930;DHT22;43305;52.186;5.598;2023-02-28T03:26:31;2.30;99.90
18930;DHT22;43305;52.186;5.598;2023-02-28T03:29:03;2.30;99.90
18930;DHT22;43305;52.186;5.598;2023-02-28T03:31:35;2.30;99.90
18930;DHT22;43305;52.186;5.598;2023-02-28T03:34:08;2.30;99.90
18930;DHT22;43305;52.186;5.598;2023-02-28T03:36:41;2.30;99.90
18930;DHT22;43305;52.186;5.598;2023-02-28T03:39:13;2.30;99.90
18930;DHT22;43305;52.186;5.598;2023-02-28T03:41:44;2.30;99.90
18930;DHT22;43305;52.186;5.598;2023-02-28T03:44:16;2.30;99.90
18930;DHT22;43305;52.186;5.598;2023-02-28T03:46:48;2.30;99.90
18930;DHT22;43305;52.186;5.598;2023-02-28T03:49:18;2.30;99.90
18930;DHT22;43305;52.186;5.598;2023-02-28T03:51:48;2.30;99.90
18930;DHT22;43305;52.186;5.598;2023-02-28T03:54:21;2.30;99.90
18930;DHT22;43305;52.186;5.598;2023-02-28T03:56:52;2.30;99.90
18930;DHT22;43305;52.186;5.598;2023-02-28T03:59:26;2.30;99.90
18930;DHT22;43305;52.186;5.598;2023-02-28T04:01:55;2.40;99.90
18930;DHT22;43305;52.186;5.598;2023-02-28T04:04:23;2.30;99.90
18930;DHT22;43305;52.186;5.598;2023-02-28T04:06:53;2.30;99.90
18930;DHT22;43305;52.186;5.598;2023-02-28T04:09:27;2.30;99.90
18930;DHT22;43305;52.186;5.598;2023-02-28T04:11:54;2.30;99.90
18930;DHT22;43305;52.186;5.598;2023-02-28T04:14:22;2.20;99.90
18930;DHT22;43305;52.186;5.598;2023-02-28T04:16:49;2.20;99.90
18930;DHT22;43305;52.186;5.598;2023-02-28T04:19:17;2.20;99.90
18930;DHT22;43305;52.186;5.598;2023-02-28T04:21:46;2.20;99.90
18930;DHT22;43305;52.186;5.598;2023-02-28T04:24:17;2.20;99.90
18930;DHT22;43305;52.186;5.598;2023-02-28T04:26:46;2.20;99.90
18930;DHT22;43305;52.186;5.598;2023-02-28T04:29:18;2.20;99.90
18930;DHT22;43305;52.186;5.598;2023-02-28T04:31:45;2.10;99.90
18930;DHT22;43305;52.186;5.598;2023-02-28T04:34:12;2.10;99.90
18930;DHT22;43305;52.186;5.598;2023-02-28T04:36:40;2.10;99.90
18930;DHT22;43305;52.186;5.598;2023-02-28T04:39:07;2.00;99.90
18930;DHT22;43305;52.186;5.598;2023-02-28T04:41:36;2.00;99.90
18930;DHT22;43305;52.186;5.598;2023-02-28T04:44:03;2.00;99.90
18930;DHT22;43305;52.186;5.598;2023-02-28T04:46:30;2.00;99.90
18930;DHT22;43305;52.186;5.598;2023-02-28T04:48:57;2.00;99.90
18930;DHT22;43305;52.186;5.598;2023-02-28T04:51:24;1.90;99.90
18930;DHT22;43305;52.186;5.598;2023-02-28T04:53:52;1.80;99.90
18930;DHT22;43305;52.186;5.598;2023-02-28T04:56:19;1.80;99.90
18930;DHT22;43305;52.186;5.598;2023-02-28T04:58:48;1.80;99.90
18930;DHT22;43305;52.186;5.598;2023-02-28T05:01:19;1.70;99.90
18930;DHT22;43305;52.186;5.598;2023-02-28T05:03:47;1.60;99.90
18930;DHT22;43305;52.186;5.598;2023-02-28T05:06:16;1.60;99.90
18930;DHT22;43305;52.186;5.598;2023-02-28T05:08:43;1.60;99.90
18930;DHT22;43305;52.186;5.598;2023-02-28T05:11:15;1.50;99.90
18930;DHT22;43305;52.186;5.598;2023-02-28T05:13:42;1.50;99.90
18930;DHT22;43305;52.186;5.598;2023-02-28T05:16:10;1.50;99.90
18930;DHT22;43305;52.186;5.598;2023-02-28T05:18:37;1.50;99.90
18930;DHT22;43305;52.186;5.598;2023-02-28T05:21:04;1.40;99.90
18930;DHT22;43305;52.186;5.598;2023-02-28T05:23:31;1.40;99.90
18930;DHT22;43305;52.186;5.598;2023-02-28T05:25:59;1.50;99.90
18930;DHT22;43305;52.186;5.598;2023-02-28T05:28:25;1.50;99.90
18930;DHT22;43305;52.186;5.598;2023-02-28T05:30:52;1.50;99.90
18930;DHT22;43305;52.186;5.598;2023-02-28T05:33:20;1.50;99.90
18930;DHT22;43305;52.186;5.598;2023-02-28T05:35:47;1.50;99.90
18930;DHT22;43305;52.186;5.598;2023-02-28T05:38:14;1.50;99.90
18930;DHT22;43305;52.186;5.598;2023-02-28T05:40:41;1.50;99.90
18930;DHT22;43305;52.186;5.598;2023-02-28T05:43:10;1.50;99.90
18930;DHT22;43305;52.186;5.598;2023-02-28T05:45:38;1.50;99.90
18930;DHT22;43305;52.186;5.598;2023-02-28T05:48:05;1.60;99.90
18930;DHT22;43305;52.186;5.598;2023-02-28T05:50:33;1.60;99.90
18930;DHT22;43305;52.186;5.598;2023-02-28T05:53:00;1.60;99.90
18930;DHT22;43305;52.186;5.598;2023-02-28T05:55:27;1.60;99.90
18930;DHT22;43305;52.186;5.598;2023-02-28T05:57:54;1.60;99.90
18930;DHT22;43305;52.186;5.598;2023-02-28T06:00:21;1.60;99.90
18930;DHT22;43305;52.186;5.598;2023-02-28T06:02:48;1.60;99.90
18930;DHT22;43305;52.186;5.598;2023-02-28T06:05:17;1.50;99.90
18930;DHT22;43305;52.186;5.598;2023-02-28T06:07:46;1.60;99.90
18930;DHT22;43305;52.186;5.598;2023-02-28T06:10:13;1.60;99.90
18930;DHT22;43305;52.186;5.598;2023-02-28T06:12:41;1.60;99.90
18930;DHT22;43305;52.186;5.598;2023-02-28T06:15:11;1.60;99.90
18930;DHT22;43305;52.186;5.598;2023-02-28T06:17:39;1.50;99.90
18930;DHT22;43305;52.186;5.598;2023-02-28T06:20:07;1.50;99.90
18930;DHT22;43305;52.186;5.598;2023-02-28T06:22:35;1.50;99.90
18930;DHT22;43305;52.186;5.598;2023-02-28T06:25:04;1.50;99.90
18930;DHT22;43305;52.186;5.598;2023-02-28T06:27:33;1.40;99.90
18930;DHT22;43305;52.186;5.598;2023-02-28T06:30:00;1.40;99.90
18930;DHT22;43305;52.186;5.598;2023-02-28T06:32:26;1.40;99.90
18930;DHT22;43305;52.186;5.598;2023-02-28T06:34:53;1.40;99.90
18930;DHT22;43305;52.186;5.598;2023-02-28T06:37:22;1.40;99.90
18930;DHT22;43305;52.186;5.598;2023-02-28T06:39:51;1.40;99.90
18930;DHT22;43305;52.186;5.598;2023-02-28T06:42:19;1.40;99.90
18930;DHT22;43305;52.186;5.598;2023-02-28T06:44:47;1.40;99.90
18930;DHT22;43305;52.186;5.598;2023-02-28T06:47:14;1.40;99.90
18930;DHT22;43305;52.186;5.598;2023-02-28T06:49:41;1.40;99.90
18930;DHT22;43305;52.186;5.598;2023-02-28T06:52:08;1.40;99.90
18930;DHT22;43305;52.186;5.598;2023-02-28T06:54:36;1.40;99.90
18930;DHT22;43305;52.186;5.598;2023-02-28T06:57:03;1.40;99.90
18930;DHT22;43305;52.186;5.598;2023-02-28T06:59:31;1.40;99.90
18930;DHT22;43305;52.186;5.598;2023-02-28T07:01:58;1.50;99.90
18930;DHT22;43305;52.186;5.598;2023-02-28T07:04:25;1.50;99.90
18930;DHT22;43305;52.186;5.598;2023-02-28T07:06:53;1.50;99.90
18930;DHT22;43305;52.186;5.598;2023-02-28T07:09:22;1.50;99.90
18930;DHT22;43305;52.186;5.598;2023-02-28T07:11:49;1.50;99.90
18930;DHT22;43305;52.186;5.598;2023-02-28T07:14:15;1.50;99.90
18930;DHT22;43305;52.186;5.598;2023-02-28T07:16:44;1.50;99.90
18930;DHT22;43305;52.186;5.598;2023-02-28T07:19:11;1.50;99.90
18930;DHT22;43305;52.186;5.598;2023-02-28T07:21:38;1.60;99.90
18930;DHT22;43305;52.186;5.598;2023-02-28T07:24:05;1.50;99.90
18930;DHT22;43305;52.186;5.598;2023-02-28T07:26:32;1.60;99.90
18930;DHT22;43305;52.186;5.598;2023-02-28T07:29:00;1.60;99.90
18930;DHT22;43305;52.186;5.598;2023-02-28T07:31:27;1.70;99.90
18930;DHT22;43305;52.186;5.598;2023-02-28T07:33:55;1.70;99.90
18930;DHT22;43305;52.186;5.598;2023-02-28T07:36:22;1.80;99.90
18930;DHT22;43305;52.186;5.598;2023-02-28T07:38:49;1.80;99.90
18930;DHT22;43305;52.186;5.598;2023-02-28T07:41:17;1.80;99.90
18930;DHT22;43305;52.186;5.598;2023-02-28T07:43:47;1.80;99.90
18930;DHT22;43305;52.186;5.598;2023-02-28T07:46:16;1.90;99.90
18930;DHT22;43305;52.186;5.598;2023-02-28T07:48:44;1.90;99.90
18930;DHT22;43305;52.186;5.598;2023-02-28T07:51:12;2.00;99.90
18930;DHT22;43305;52.186;5.598;2023-02-28T07:53:39;2.00;99.90
18930;DHT22;43305;52.186;5.598;2023-02-28T07:56:07;2.10;99.90
18930;DHT22;43305;52.186;5.598;2023-02-28T07:58:34;2.10;99.90
18930;DHT22;43305;52.186;5.598;2023-02-28T08:01:05;2.20;99.90
18930;DHT22;43305;52.186;5.598;2023-02-28T08:03:33;2.30;99.90
18930;DHT22;43305;52.186;5.598;2023-02-28T08:05:59;2.40;99.90
18930;DHT22;43305;52.186;5.598;2023-02-28T08:08:29;2.40;99.90
18930;DHT22;43305;52.186;5.598;2023-02-28T08:10:58;2.40;99.90
18930;DHT22;43305;52.186;5.598;2023-02-28T08:13:25;2.30;99.90
18930;DHT22;43305;52.186;5.598;2023-02-28T08:15:52;2.30;99.90
18930;DHT22;43305;52.186;5.598;2023-02-28T08:18:19;2.30;99.90
18930;DHT22;43305;52.186;5.598;2023-02-28T08:20:46;2.30;99.90
18930;DHT22;43305;52.186;5.598;2023-02-28T08:23:13;2.30;99.90
18930;DHT22;43305;52.186;5.598;2023-02-28T08:25:44;2.40;99.90
18930;DHT22;43305;52.186;5.598;2023-02-28T08:28:11;2.40;99.90
18930;DHT22;43305;52.186;5.598;2023-02-28T08:30:38;2.40;99.90
18930;DHT22;43305;52.186;5.598;2023-02-28T08:33:06;2.40;99.90
18930;DHT22;43305;52.186;5.598;2023-02-28T08:35:35;2.40;99.90
18930;DHT22;43305;52.186;5.598;2023-02-28T08:38:02;2.50;99.90
18930;DHT22;43305;52.186;5.598;2023-02-28T08:40:29;2.60;99.90
18930;DHT22;43305;52.186;5.598;2023-02-28T08:42:57;2.70;99.90
18930;DHT22;43305;52.186;5.598;2023-02-28T08:45:25;2.70;99.90
18930;DHT22;43305;52.186;5.598;2023-02-28T08:47:53;2.80;99.90
18930;DHT22;43305;52.186;5.598;2023-02-28T08:50:20;2.90;99.90
18930;DHT22;43305;52.186;5.598;2023-02-28T08:52:48;2.90;99.90
18930;DHT22;43305;52.186;5.598;2023-02-28T08:55:15;3.10;99.90
18930;DHT22;43305;52.186;5.598;2023-02-28T08:57:41;3.40;99.90
18930;DHT22;43305;52.186;5.598;2023-02-28T09:00:11;3.80;99.90
18930;DHT22;43305;52.186;5.598;2023-02-28T09:02:39;4.00;99.90
18930;DHT22;43305;52.186;5.598;2023-02-28T09:05:06;4.30;99.90
18930;DHT22;43305;52.186;5.598;2023-02-28T09:07:34;4.70;99.90
18930;DHT22;43305;52.186;5.598;2023-02-28T09:10:01;5.00;99.90
18930;DHT22;43305;52.186;5.598;2023-02-28T09:12:32;5.10;99.90
18930;DHT22;43305;52.186;5.598;2023-02-28T09:14:59;5.10;99.90
18930;DHT22;43305;52.186;5.598;2023-02-28T09:17:28;5.20;99.90
18930;DHT22;43305;52.186;5.598;2023-02-28T09:19:54;5.40;99.90
18930;DHT22;43305;52.186;5.598;2023-02-28T09:22:22;5.40;99.90
18930;DHT22;43305;52.186;5.598;2023-02-28T09:24:49;5.40;99.90
18930;DHT22;43305;52.186;5.598;2023-02-28T09:27:16;5.30;99.90
18930;DHT22;43305;52.186;5.598;2023-02-28T09:29:42;5.30;99.90
18930;DHT22;43305;52.186;5.598;2023-02-28T09:32:09;5.50;99.90
18930;DHT22;43305;52.186;5.598;2023-02-28T09:34:38;5.60;99.90
18930;DHT22;43305;52.186;5.598;2023-02-28T09:37:05;5.60;99.90
18930;DHT22;43305;52.186;5.598;2023-02-28T09:39:32;5.30;99.90
18930;DHT22;43305;52.186;5.598;2023-02-28T09:41:59;5.40;99.90
18930;DHT22;43305;52.186;5.598;2023-02-28T09:44:30;5.40;99.90
18930;DHT22;43305;52.186;5.598;2023-02-28T09:47:00;5.40;99.90
18930;DHT22;43305;52.186;5.598;2023-02-28T09:49:34;5.40;99.90
18930;DHT22;43305;52.186;5.598;2023-02-28T09:52:10;5.50;99.90
18930;DHT22;43305;52.186;5.598;2023-02-28T09:54:37;5.80;99.90
18930;DHT22;43305;52.186;5.598;2023-02-28T09:57:08;6.20;99.90
18930;DHT22;43305;52.186;5.598;2023-02-28T09:59:42;6.60;99.90
18930;DHT22;43305;52.186;5.598;2023-02-28T10:05:11;7.00;99.90
18930;DHT22;43305;52.186;5.598;2023-02-28T10:07:50;7.00;99.90
18930;DHT22;43305;52.186;5.598;2023-02-28T10:10:23;6.70;99.90
18930;DHT22;43305;52.186;5.598;2023-02-28T10:12:53;7.00;99.90
18930;DHT22;43305;52.186;5.598;2023-02-28T10:15:21;7.50;99.90
18930;DHT22;43305;52.186;5.598;2023-02-28T10:17:54;7.80;99.90
18930;DHT22;43305;52.186;5.598;2023-02-28T10:20:23;8.10;99.90
18930;DHT22;43305;52.186;5.598;2023-02-28T10:22:59;8.10;99.90
18930;DHT22;43305;52.186;5.598;2023-02-28T10:25:34;7.90;99.90
18930;DHT22;43305;52.186;5.598;2023-02-28T10:28:09;7.60;99.90
18930;DHT22;43305;52.186;5.598;2023-02-28T10:30:39;7.20;99.90
18930;DHT22;43305;52.186;5.598;2023-02-28T10:33:17;7.20;99.90
18930;DHT22;43305;52.186;5.598;2023-02-28T10:35:45;7.30;99.90
18930;DHT22;43305;52.186;5.598;2023-02-28T10:38:22;7.40;99.90
18930;DHT22;43305;52.186;5.598;2023-02-28T10:40:49;7.60;99.90
18930;DHT22;43305;52.186;5.598;2023-02-28T10:43:20;7.50;99.90
18930;DHT22;43305;52.186;5.598;2023-02-28T10:45:57;7.70;99.90
18930;DHT22;43305;52.186;5.598;2023-02-28T10:48:32;8.30;99.90
18930;DHT22;43305;52.186;5.598;2023-02-28T10:51:00;8.50;99.90
18930;DHT22;43305;52.186;5.598;2023-02-28T10:53:37;8.80;99.90
18930;DHT22;43305;52.186;5.598;2023-02-28T10:56:12;9.10;99.90
18930;DHT22;43305;52.186;5.598;2023-02-28T10:58:51;9.50;99.90
18930;DHT22;43305;52.186;5.598;2023-02-28T11:01:20;8.90;99.90
18930;DHT22;43305;52.186;5.598;2023-02-28T11:03:48;8.40;99.90
18930;DHT22;43305;52.186;5.598;2023-02-28T11:06:18;8.70;99.90
18930;DHT22;43305;52.186;5.598;2023-02-28T11:08:50;9.10;99.90
18930;DHT22;43305;52.186;5.598;2023-02-28T11:11:18;9.00;99.90
18930;DHT22;43305;52.186;5.598;2023-02-28T11:13:47;9.20;99.90
18930;DHT22;43305;52.186;5.598;2023-02-28T11:16:16;9.10;99.90
18930;DHT22;43305;52.186;5.598;2023-02-28T11:18:48;9.00;99.90
18930;DHT22;43305;52.186;5.598;2023-02-28T11:21:22;9.10;99.90
18930;DHT22;43305;52.186;5.598;2023-02-28T11:23:55;9.40;99.90
18930;DHT22;43305;52.186;5.598;2023-02-28T11:26:38;9.90;99.90
18930;DHT22;43305;52.186;5.598;2023-02-28T11:29:18;9.90;99.90
18930;DHT22;43305;52.186;5.598;2023-02-28T11:32:02;9.90;99.90
18930;DHT22;43305;52.186;5.598;2023-02-28T11:34:30;10.10;99.90
18930;DHT22;43305;52.186;5.598;2023-02-28T11:36:58;10.40;99.90
18930;DHT22;43305;52.186;5.598;2023-02-28T11:39:27;10.80;99.90
18930;DHT22;43305;52.186;5.598;2023-02-28T11:45:01;10.80;99.90
18930;DHT22;43305;52.186;5.598;2023-02-28T11:47:34;11.20;99.90
18930;DHT22;43305;52.186;5.598;2023-02-28T11:50:17;11.70;99.90
18930;DHT22;43305;52.186;5.598;2023-02-28T11:52:53;11.10;99.90
18930;DHT22;43305;52.186;5.598;2023-02-28T11:55:25;10.20;99.90
18930;DHT22;43305;52.186;5.598;2023-02-28T11:58:17;10.00;99.90
18930;DHT22;43305;52.186;5.598;2023-02-28T12:00:57;10.00;99.90
18930;DHT22;43305;52.186;5.598;2023-02-28T12:03:31;10.50;99.90
18930;DHT22;43305;52.186;5.598;2023-02-28T12:06:13;11.10;99.90
18930;DHT22;43305;52.186;5.598;2023-02-28T12:09:00;11.70;99.90
18930;DHT22;43305;52.186;5.598;2023-02-28T12:11:37;12.10;99.90
18930;DHT22;43305;52.186;5.598;2023-02-28T12:14:44;12.10;99.90
18930;DHT22;43305;52.186;5.598;2023-02-28T12:17:23;12.30;99.90
18930;DHT22;43305;52.186;5.598;2023-02-28T12:20:02;11.30;99.90
18930;DHT22;43305;52.186;5.598;2023-02-28T12:22:39;10.40;99.90
18930;DHT22;43305;52.186;5.598;2023-02-28T12:25:38;10.70;99.90
18930;DHT22;43305;52.186;5.598;2023-02-28T12:28:12;10.60;99.90
18930;DHT22;43305;52.186;5.598;2023-02-28T12:30:49;10.00;99.90
18930;DHT22;43305;52.186;5.598;2023-02-28T12:33:20;9.80;99.90
18930;DHT22;43305;52.186;5.598;2023-02-28T12:35:52;10.00;99.90
18930;DHT22;43305;52.186;5.598;2023-02-28T12:38:22;10.30;99.90
18930;DHT22;43305;52.186;5.598;2023-02-28T12:40:53;10.90;99.90
18930;DHT22;43305;52.186;5.598;2023-02-28T12:43:27;11.30;99.90
18930;DHT22;43305;52.186;5.598;2023-02-28T12:45:58;11.30;99.90
18930;DHT22;43305;52.186;5.598;2023-02-28T12:48:29;11.20;99.90
18930;DHT22;43305;52.186;5.598;2023-02-28T12:50:58;11.10;99.90
18930;DHT22;43305;52.186;5.598;2023-02-28T12:53:30;10.80;99.90
18930;DHT22;43305;52.186;5.598;2023-02-28T12:56:07;11.20;99.90
18930;DHT22;43305;52.186;5.598;2023-02-28T12:58:39;11.50;99.90
18930;DHT22;43305;52.186;5.598;2023-02-28T13:01:32;11.40;99.90
18930;DHT22;43305;52.186;5.598;2023-02-28T13:04:27;11.20;99.90
18930;DHT22;43305;52.186;5.598;2023-02-28T13:07:19;10.40;99.90
18930;DHT22;43305;52.186;5.598;2023-02-28T13:09:55;10.70;99.90
18930;DHT22;43305;52.186;5.598;2023-02-28T13:12:23;11.60;99.90
18930;DHT22;43305;52.186;5.598;2023-02-28T13:15:03;11.40;99.90
18930;DHT22;43305;52.186;5.598;2023-02-28T13:17:31;11.60;99.90
18930;DHT22;43305;52.186;5.598;2023-02-28T13:19:59;11.40;99.90
18930;DHT22;43305;52.186;5.598;2023-02-28T13:22:39;11.70;99.90
18930;DHT22;43305;52.186;5.598;2023-02-28T13:28:10;12.30;99.90
18930;DHT22;43305;52.186;5.598;2023-02-28T13:31:02;12.50;99.90
18930;DHT22;43305;52.186;5.598;2023-02-28T13:33:30;12.40;99.90
18930;DHT22;43305;52.186;5.598;2023-02-28T13:36:07;11.90;99.90
18930;DHT22;43305;52.186;5.598;2023-02-28T13:38:38;12.20;99.90
18930;DHT22;43305;52.186;5.598;2023-02-28T13:41:41;11.70;99.90
18930;DHT22;43305;52.186;5.598;2023-02-28T13:44:09;11.90;99.90
18930;DHT22;43305;52.186;5.598;2023-02-28T13:47:16;11.80;99.90
18930;DHT22;43305;52.186;5.598;2023-02-28T13:49:46;11.90;99.90
18930;DHT22;43305;52.186;5.598;2023-02-28T13:52:17;12.00;99.90
18930;DHT22;43305;52.186;5.598;2023-02-28T13:55:12;12.40;99.90
18930;DHT22;43305;52.186;5.598;2023-02-28T14:00:49;13.00;99.90
18930;DHT22;43305;52.186;5.598;2023-02-28T14:03:37;13.20;99.90
18930;DHT22;43305;52.186;5.598;2023-02-28T14:06:18;13.00;99.90
18930;DHT22;43305;52.186;5.598;2023-02-28T14:08:59;12.50;99.90
18930;DHT22;43305;52.186;5.598;2023-02-28T14:11:31;12.10;99.90
18930;DHT22;43305;52.186;5.598;2023-02-28T14:13:59;12.40;99.90
18930;DHT22;43305;52.186;5.598;2023-02-28T14:16:27;12.30;99.90
18930;DHT22;43305;52.186;5.598;2023-02-28T14:19:11;12.50;99.90
18930;DHT22;43305;52.186;5.598;2023-02-28T14:21:43;12.40;99.90
18930;DHT22;43305;52.186;5.598;2023-02-28T14:24:38;12.30;99.90
18930;DHT22;43305;52.186;5.598;2023-02-28T14:27:21;12.10;99.90
18930;DHT22;43305;52.186;5.598;2023-02-28T14:30:45;11.50;99.90
18930;DHT22;43305;52.186;5.598;2023-02-28T14:33:25;11.30;99.90
18930;DHT22;43305;52.186;5.598;2023-02-28T14:36:06;10.70;99.90
18930;DHT22;43305;52.186;5.598;2023-02-28T14:38:37;10.40;99.90
18930;DHT22;43305;52.186;5.598;2023-02-28T14:41:19;10.10;99.90
18930;DHT22;43305;52.186;5.598;2023-02-28T14:43:55;10.10;99.90
18930;DHT22;43305;52.186;5.598;2023-02-28T14:46:25;9.90;99.90
18930;DHT22;43305;52.186;5.598;2023-02-28T14:48:53;10.10;99.90
18930;DHT22;43305;52.186;5.598;2023-02-28T14:51:23;10.10;99.90
18930;DHT22;43305;52.186;5.598;2023-02-28T14:53:52;10.30;99.90
18930;DHT22;43305;52.186;5.598;2023-02-28T14:56:24;10.50;99.90
18930;DHT22;43305;52.186;5.598;2023-02-28T14:58:53;10.80;99.90
18930;DHT22;43305;52.186;5.598;2023-02-28T15:01:22;10.90;99.90
18930;DHT22;43305;52.186;5.598;2023-02-28T15:03:58;11.30;99.90
18930;DHT22;43305;52.186;5.598;2023-02-28T15:06:28;11.40;99.90
18930;DHT22;43305;52.186;5.598;2023-02-28T15:09:10;11.20;99.90
18930;DHT22;43305;52.186;5.598;2023-02-28T15:11:38;11.40;99.90
18930;DHT22;43305;52.186;5.598;2023-02-28T15:14:05;11.60;99.90
18930;DHT22;43305;52.186;5.598;2023-02-28T15:16:35;11.90;99.90
18930;DHT22;43305;52.186;5.598;2023-02-28T15:19:07;11.90;99.90
18930;DHT22;43305;52.186;5.598;2023-02-28T15:21:41;11.80;99.90
18930;DHT22;43305;52.186;5.598;2023-02-28T15:24:13;12.10;99.90
18930;DHT22;43305;52.186;5.598;2023-02-28T15:26:45;12.60;99.90
18930;DHT22;43305;52.186;5.598;2023-02-28T15:29:14;12.80;99.90
18930;DHT22;43305;52.186;5.598;2023-02-28T15:31:45;12.00;99.90
18930;DHT22;43305;52.186;5.598;2023-02-28T15:34:18;11.50;99.90
18930;DHT22;43305;52.186;5.598;2023-02-28T15:36:48;10.80;99.90
18930;DHT22;43305;52.186;5.598;2023-02-28T15:39:20;10.40;99.90
18930;DHT22;43305;52.186;5.598;2023-02-28T15:41:50;9.80;99.90
18930;DHT22;43305;52.186;5.598;2023-02-28T15:44:25;9.50;99.90
18930;DHT22;43305;52.186;5.598;2023-02-28T15:46:59;9.30;99.90
18930;DHT22;43305;52.186;5.598;2023-02-28T15:49:28;9.10;99.90
18930;DHT22;43305;52.186;5.598;2023-02-28T15:51:59;8.90;99.90
18930;DHT22;43305;52.186;5.598;2023-02-28T15:54:29;8.80;99.90
18930;DHT22;43305;52.186;5.598;2023-02-28T15:57:04;8.80;99.90
18930;DHT22;43305;52.186;5.598;2023-02-28T15:59:35;8.70;99.90
18930;DHT22;43305;52.186;5.598;2023-02-28T16:02:19;8.60;99.90
18930;DHT22;43305;52.186;5.598;2023-02-28T16:08:18;8.30;99.90
18930;DHT22;43305;52.186;5.598;2023-02-28T16:10:45;8.20;99.90
18930;DHT22;43305;52.186;5.598;2023-02-28T16:13:12;8.00;99.90
18930;DHT22;43305;52.186;5.598;2023-02-28T16:15:42;7.90;99.90
18930;DHT22;43305;52.186;5.598;2023-02-28T16:18:11;7.80;99.90
18930;DHT22;43305;52.186;5.598;2023-02-28T16:20:39;7.70;99.90
18930;DHT22;43305;52.186;5.598;2023-02-28T16:23:07;7.80;99.90
18930;DHT22;43305;52.186;5.598;2023-02-28T16:25:36;7.70;99.90
18930;DHT22;43305;52.186;5.598;2023-02-28T16:28:04;7.70;99.90
18930;DHT22;43305;52.186;5.598;2023-02-28T16:30:33;7.70;99.90